Time;durP1;ratioP1;P1;durP2;ratioP2;P2;SDS_P1;SDS_P2;PMS_P1;PMS_P2;Temp;Humidity;BMP_temperature;BMP_pressure;BME280_temperature;BME280_humidity;BME280_pressure;Samples;Min_cycle;Max_cycle;Signal;HPM_P1;HPM_P2
2020/12/19 00:00:40;;;;;;;8.77;6.65;;;15.30;65.60;;;;;;2091314;28;20052;-76
2020/12/19 00:01:41;;;;;;;6.05;4.75;;;15.30;64.90;;;;;;2084228;28;20102;-75
2020/12/19 00:02:43;;;;;;;10.35;8.43;;;15.40;66.60;;;;;;2091881;28;20534;-76
2020/12/19 00:03:45;;;;;;;12.35;9.50;;;14.90;63.90;;;;;;2092144;28;20049;-76
2020/12/19 00:04:47;;;;;;;13.07;7.70;;;14.40;63.60;;;;;;2092227;28;20500;-75
2020/12/19 00:05:49;;;;;;;10.13;7.60;;;14.50;66.50;;;;;;2091919;28;20543;-76
2020/12/19 00:06:50;;;;;;;14.00;8.80;;;14.40;66.30;;;;;;2091028;28;20049;-75
2020/12/19 00:07:53;;;;;;;11.18;7.85;;;14.00;66.70;;;;;;2090851;28;20052;-75
2020/12/19 00:08:55;;;;;;;9.18;5.43;;;14.30;67.90;;;;;;2090969;28;20497;-76
2020/12/19 00:09:57;;;;;;;9.73;7.88;;;14.60;69.10;;;;;;2090650;28;20045;-74
2020/12/19 00:10:59;;;;;;;14.27;8.98;;;14.50;66.80;;;;;;2090574;28;20056;-76
2020/12/19 00:12:00;;;;;;;9.75;6.00;;;14.30;64.40;;;;;;2090436;28;20061;-77
2020/12/19 00:13:02;;;;;;;15.27;6.80;;;14.40;68.10;;;;;;2089743;28;20477;-75
2020/12/19 00:14:04;;;;;;;8.65;5.57;;;14.70;66.90;;;;;;2089803;28;20048;-76
2020/12/19 00:15:05;;;;;;;6.30;4.30;;;14.80;67.60;;;;;;2090402;28;20041;-75
2020/12/19 00:16:07;;;;;;;7.60;5.20;;;15.20;67.40;;;;;;2091060;28;20056;-76
2020/12/19 00:17:09;;;;;;;9.70;6.47;;;15.30;66.30;;;;;;2090519;28;20072;-76
2020/12/19 00:18:10;;;;;;;8.23;6.03;;;15.40;65.10;;;;;;2090567;28;20059;-75
2020/12/19 00:19:12;;;;;;;8.38;5.72;;;15.30;64.00;;;;;;2090485;28;20060;-76
2020/12/19 00:20:15;;;;;;;8.02;4.72;;;15.50;65.30;;;;;;2090391;28;20512;-76
2020/12/19 00:21:16;;;;;;;8.43;5.30;;;15.70;64.70;;;;;;2090844;28;20433;-76
2020/12/19 00:22:21;;;;;;;8.88;6.05;;;15.90;64.00;;;;;;2091191;28;20056;-76
2020/12/19 00:23:23;;;;;;;8.82;5.97;;;16.00;63.60;;;;;;2091047;28;20059;-76
2020/12/19 00:24:25;;;;;;;6.97;4.90;;;15.90;62.30;;;;;;2091005;28;20486;-75
2020/12/19 00:25:27;;;;;;;9.27;6.45;;;15.70;64.30;;;;;;2091240;28;20045;-76
2020/12/19 00:26:33;;;;;;;8.57;5.30;;;15.70;62.50;;;;;;2091039;28;20394;-75
2020/12/19 00:27:35;;;;;;;6.35;4.50;;;15.80;64.00;;;;;;2091086;28;20076;-76
2020/12/19 00:28:36;;;;;;;9.20;7.65;;;16.00;63.40;;;;;;2090920;28;20073;-75
2020/12/19 00:29:39;;;;;;;8.63;5.88;;;16.00;61.90;;;;;;2091163;28;20096;-75
2020/12/19 00:30:40;;;;;;;6.45;5.30;;;15.90;62.80;;;;;;2091691;28;20045;-74
2020/12/19 00:31:42;;;;;;;12.90;7.97;;;15.50;63.90;;;;;;2091946;28;20052;-75
2020/12/19 00:32:44;;;;;;;10.20;7.32;;;15.40;62.00;;;;;;2091415;28;20045;-74
2020/12/19 00:33:45;;;;;;;6.20;4.75;;;15.60;62.90;;;;;;2091314;28;20056;-75
2020/12/19 00:34:47;;;;;;;8.32;4.97;;;15.50;65.00;;;;;;2090542;28;20409;-75
2020/12/19 00:35:50;;;;;;;;;;;15.90;64.10;;;;;;2090415;28;20326;-75
2020/12/19 00:36:52;;;;;;;8.85;5.70;;;15.50;61.70;;;;;;2098542;28;19967;-75
2020/12/19 00:37:53;;;;;;;;;;;15.40;64.40;;;;;;2097964;28;20056;-75
2020/12/19 00:38:55;;;;;;;7.95;5.82;;;15.50;64.60;;;;;;2090219;28;19964;-75
2020/12/19 00:39:57;;;;;;;;;;;15.60;62.40;;;;;;2090779;28;20052;-75
2020/12/19 00:40:58;;;;;;;6.75;4.32;;;15.60;62.70;;;;;;2090070;28;19927;-74
2020/12/19 00:42:00;;;;;;;8.80;6.28;;;15.70;64.00;;;;;;2089896;28;20449;-75
2020/12/19 00:43:02;;;;;;;7.82;4.70;;;15.60;64.20;;;;;;2090732;28;20049;-75
2020/12/19 00:44:05;;;;;;;7.80;5.13;;;15.80;63.20;;;;;;2090760;28;20402;-75
2020/12/19 00:45:08;;;;;;;9.07;6.25;;;15.80;62.60;;;;;;2090830;28;20051;-75
2020/12/19 00:46:11;;;;;;;5.50;4.15;;;15.60;61.00;;;;;;2090930;28;20045;-74
2020/12/19 00:47:12;;;;;;;9.63;6.80;;;15.50;64.70;;;;;;2090598;28;20045;-76
2020/12/19 00:48:16;;;;;;;11.48;6.68;;;15.40;61.90;;;;;;2092119;28;20463;-77
2020/12/19 00:49:18;;;;;;;8.77;6.00;;;15.10;64.70;;;;;;2090340;28;20137;-75
2020/12/19 00:50:19;;;;;;;9.88;7.45;;;15.00;64.00;;;;;;2090489;28;20045;-75
2020/12/19 00:51:23;;;;;;;8.80;5.53;;;14.90;64.60;;;;;;2091634;28;20083;-75
2020/12/19 00:52:24;;;;;;;11.55;6.63;;;14.90;65.60;;;;;;2092821;28;20069;-76
2020/12/19 00:53:26;;;;;;;11.32;6.63;;;14.90;64.00;;;;;;2091736;28;20048;-75
2020/12/19 00:54:28;;;;;;;7.30;6.43;;;14.60;65.00;;;;;;2091826;28;20052;-75
2020/12/19 00:55:29;;;;;;;6.43;4.47;;;14.40;65.80;;;;;;2091911;28;20048;-74
2020/12/19 00:56:31;;;;;;;8.95;5.55;;;14.10;68.70;;;;;;2092439;28;20061;-74
2020/12/19 00:57:33;;;;;;;9.68;6.28;;;14.30;68.50;;;;;;2092875;28;20048;-75
2020/12/19 00:58:35;;;;;;;9.38;6.45;;;14.20;66.00;;;;;;2093917;28;20053;-75
2020/12/19 00:59:39;;;;;;;11.95;6.68;;;14.40;67.00;;;;;;2093023;28;20109;-75
2020/12/19 01:00:40;;;;;;;11.50;6.53;;;14.20;66.30;;;;;;2093884;28;20049;-75
2020/12/19 01:01:42;;;;;;;7.72;6.07;;;14.20;67.70;;;;;;2092517;28;20041;-75
2020/12/19 01:02:43;;;;;;;12.02;6.82;;;14.40;66.80;;;;;;2092082;28;20556;-74
2020/12/19 01:03:48;;;;;;;6.35;4.95;;;14.50;67.10;;;;;;2099610;28;20468;-75
2020/12/19 01:04:50;;;;;;;9.50;6.53;;;14.70;67.20;;;;;;2098949;28;20108;-74
2020/12/19 01:05:53;;;;;;;10.45;6.53;;;14.50;66.70;;;;;;2092087;28;20055;-75
2020/12/19 01:06:56;;;;;;;9.57;5.65;;;14.40;65.70;;;;;;2091351;28;20049;-75
2020/12/19 01:07:58;;;;;;;11.50;8.32;;;14.30;66.90;;;;;;2090725;28;20052;-74
2020/12/19 01:09:00;;;;;;;8.68;4.80;;;13.90;66.10;;;;;;2092284;28;20052;-75
2020/12/19 01:10:09;;;;;;;9.27;5.72;;;14.30;69.80;;;;;;2093259;28;20056;-75
2020/12/19 01:11:13;;;;;;;5.75;4.07;;;14.40;68.00;;;;;;2091737;28;20045;-74
2020/12/19 01:12:15;;;;;;;9.75;6.05;;;14.50;68.10;;;;;;2092402;28;20073;-76
2020/12/19 01:13:17;;;;;;;11.65;5.85;;;14.50;65.90;;;;;;2092629;28;20056;-76
2020/12/19 01:14:19;;;;;;;7.93;5.28;;;14.60;66.80;;;;;;2091667;28;20045;-76
2020/12/19 01:15:21;;;;;;;8.77;5.60;;;14.60;67.10;;;;;;2091306;28;20411;-76
2020/12/19 01:16:24;;;;;;;7.45;5.55;;;14.40;67.60;;;;;;2090852;28;20064;-75
2020/12/19 01:17:27;;;;;;;7.85;4.35;;;14.40;66.80;;;;;;2091232;28;20037;-75
2020/12/19 01:18:28;;;;;;;8.93;5.32;;;14.50;68.50;;;;;;2091239;28;20041;-76
2020/12/19 01:19:31;;;;;;;6.20;3.95;;;14.60;67.60;;;;;;2089836;28;20112;-75
2020/12/19 01:20:33;;;;;;;6.45;4.68;;;14.80;67.90;;;;;;2091654;28;20077;-76
2020/12/19 01:21:35;;;;;;;8.88;5.07;;;14.90;66.70;;;;;;2092778;28;20073;-75
2020/12/19 01:22:37;;;;;;;9.13;5.95;;;15.10;66.00;;;;;;2092378;28;20080;-75
2020/12/19 01:23:39;;;;;;;7.22;5.13;;;15.00;65.10;;;;;;2093008;28;20048;-76
2020/12/19 01:24:41;;;;;;;8.73;6.10;;;15.30;65.20;;;;;;2092761;28;20378;-76
2020/12/19 01:25:42;;;;;;;10.90;6.35;;;14.90;66.00;;;;;;2092265;28;20049;-76
2020/12/19 01:26:44;;;;;;;6.40;5.43;;;14.90;63.60;;;;;;2091689;28;20041;-76
2020/12/19 01:27:46;;;;;;;7.97;4.72;;;14.50;65.10;;;;;;2091402;28;20049;-75
2020/12/19 01:28:47;;;;;;;6.07;4.22;;;14.50;66.00;;;;;;2091312;28;20220;-76
2020/12/19 01:29:49;;;;;;;7.60;4.82;;;14.70;68.40;;;;;;2090747;28;20053;-76
2020/12/19 01:30:52;;;;;;;9.75;5.93;;;14.90;67.00;;;;;;2090066;28;20049;-76
2020/12/19 01:31:54;;;;;;;8.63;7.00;;;14.60;64.90;;;;;;2091676;28;20060;-76
2020/12/19 01:32:57;;;;;;;8.43;6.20;;;14.50;65.50;;;;;;2091649;28;20049;-75
2020/12/19 01:34:10;;;;;;;8.50;6.30;;;14.50;65.30;;;;;;2091956;28;20459;-76
2020/12/19 01:35:12;;;;;;;12.50;6.70;;;14.10;66.20;;;;;;2092345;28;20401;-75
2020/12/19 01:36:17;;;;;;;8.68;6.22;;;13.80;66.50;;;;;;2092424;28;20067;-75
2020/12/19 01:37:19;;;;;;;11.90;4.95;;;13.70;68.10;;;;;;2092243;28;20045;-75
2020/12/19 01:38:21;;;;;;;8.90;5.00;;;13.80;70.20;;;;;;2092763;28;20045;-75
2020/12/19 01:39:25;;;;;;;9.07;4.78;;;14.10;69.30;;;;;;2092334;28;20045;-76
2020/12/19 01:40:29;;;;;;;9.23;6.13;;;14.20;68.50;;;;;;2091970;28;20572;-75
2020/12/19 01:41:31;;;;;;;11.18;7.32;;;14.00;68.50;;;;;;2091343;28;20099;-75
2020/12/19 01:42:33;;;;;;;12.45;7.80;;;13.80;66.50;;;;;;2090896;28;20045;-75
2020/12/19 01:43:42;;;;;;;;;;;13.50;68.00;;;;;;2091836;28;20049;-74
2020/12/19 01:44:43;;;;;;;11.50;6.60;;;13.60;70.10;;;;;;2091269;28;19952;-76
2020/12/19 01:45:47;;;;;;;10.88;7.20;;;13.60;70.50;;;;;;2091514;28;20045;-75
2020/12/19 01:46:55;;;;;;;13.35;6.78;;;13.50;69.50;;;;;;2090686;28;20040;-75
2020/12/19 01:47:57;;;;;;;8.60;6.10;;;13.80;70.80;;;;;;2091194;28;20395;-76
2020/12/19 01:48:59;;;;;;;8.85;6.13;;;13.60;70.20;;;;;;2088757;28;20399;-77
2020/12/19 01:50:04;;;;;;;7.30;4.60;;;13.70;68.30;;;;;;2085977;28;20057;-76
2020/12/19 01:51:09;;;;;;;8.38;5.25;;;14.00;70.20;;;;;;2085337;28;20046;-75
2020/12/19 01:52:10;;;;;;;9.10;5.57;;;13.90;69.60;;;;;;2085495;28;20045;-75
2020/12/19 01:53:12;;;;;;;8.70;6.32;;;14.10;68.70;;;;;;2085822;28;20056;-74
2020/12/19 01:54:21;;;;;;;7.20;5.60;;;14.20;67.10;;;;;;2085044;28;20053;-76
2020/12/19 01:55:23;;;;;;;7.20;5.60;;;14.10;66.80;;;;;;2084955;28;20042;-76
2020/12/19 01:56:39;;;;;;;7.88;5.25;;;14.00;68.50;;;;;;2092257;28;20045;-75
2020/12/19 01:57:41;;;;;;;10.45;6.20;;;14.00;68.70;;;;;;2090993;28;20120;-75
2020/12/19 01:58:46;;;;;;;8.23;5.20;;;14.10;68.40;;;;;;2084850;28;20113;-75
2020/12/19 01:59:52;;;;;;;6.60;3.88;;;14.40;68.10;;;;;;2085535;28;20045;-74
2020/12/19 02:00:58;;;;;;;9.45;6.40;;;14.40;68.50;;;;;;2083033;28;20050;-76
2020/12/19 02:02:11;;;;;;;7.13;5.30;;;14.20;66.20;;;;;;2082992;28;20405;-77
2020/12/19 02:03:12;;;;;;;6.82;4.15;;;14.30;68.30;;;;;;2082786;28;20081;-75
2020/12/19 02:04:32;;;;;;;6.82;5.05;;;14.50;68.60;;;;;;2083894;28;20057;-76
2020/12/19 02:05:38;;;;;;;6.82;3.70;;;14.70;66.90;;;;;;2082771;28;20049;-75
2020/12/19 02:06:42;;;;;;;9.75;6.60;;;14.70;67.20;;;;;;2082563;28;20046;-76
2020/12/19 02:07:44;;;;;;;6.07;4.35;;;14.50;65.80;;;;;;2082591;28;20053;-75
2020/12/19 02:08:49;;;;;;;13.93;5.60;;;14.80;67.10;;;;;;2082475;28;20049;-76
2020/12/19 02:09:59;;;;;;;8.82;5.53;;;14.90;66.60;;;;;;2089472;28;20481;-76
2020/12/19 02:11:02;;;;;;;7.10;4.78;;;14.70;66.50;;;;;;2088068;28;20045;-76
2020/12/19 02:12:04;;;;;;;5.28;4.43;;;14.80;67.10;;;;;;2082062;28;20065;-76
2020/12/19 02:13:06;;;;;;;9.07;5.90;;;14.90;67.00;;;;;;2081674;28;20414;-76
2020/12/19 02:14:08;;;;;;;7.43;5.05;;;14.70;65.00;;;;;;2082005;28;20049;-76
2020/12/19 02:15:10;;;;;;;7.20;5.00;;;14.60;66.70;;;;;;2081859;28;20053;-76
2020/12/19 02:16:16;;;;;;;6.07;3.85;;;14.80;66.90;;;;;;2082039;28;20080;-76
2020/12/19 02:17:19;;;;;;;8.18;5.82;;;15.20;66.60;;;;;;2084575;28;20049;-76
2020/12/19 02:18:20;;;;;;;9.27;4.65;;;15.00;65.60;;;;;;2090168;28;20041;-76
2020/12/19 02:19:22;;;;;;;10.38;6.57;;;15.00;66.10;;;;;;2090903;28;20462;-76
2020/12/19 02:20:24;;;;;;;7.40;4.47;;;14.80;64.40;;;;;;2091029;28;20148;-76
2020/12/19 02:21:26;;;;;;;7.45;4.15;;;14.60;66.20;;;;;;2083045;28;20045;-75
2020/12/19 02:22:27;;;;;;;5.65;3.95;;;14.80;67.40;;;;;;2091010;28;20520;-75
2020/12/19 02:23:30;;;;;;;7.57;5.15;;;15.00;66.30;;;;;;2091822;28;20049;-76
2020/12/19 02:24:33;;;;;;;6.28;4.28;;;15.00;65.30;;;;;;2091924;28;20041;-75
2020/12/19 02:25:38;;;;;;;6.95;4.75;;;15.20;65.80;;;;;;2091636;28;20052;-76
2020/12/19 02:26:44;;;;;;;5.97;3.50;;;15.30;64.80;;;;;;2091182;28;20482;-75
2020/12/19 02:27:45;;;;;;;7.72;5.25;;;15.20;65.80;;;;;;2083748;28;20046;-76
2020/12/19 02:28:47;;;;;;;7.00;5.13;;;15.20;64.30;;;;;;2091382;28;20052;-75
2020/12/19 02:29:51;;;;;;;6.22;4.95;;;15.10;65.20;;;;;;2091917;28;20041;-75
2020/12/19 02:30:53;;;;;;;10.40;7.38;;;14.90;66.20;;;;;;2092164;28;20155;-75
2020/12/19 02:31:57;;;;;;;7.90;6.05;;;14.90;64.50;;;;;;2092435;28;20052;-76
2020/12/19 02:32:59;;;;;;;10.52;6.75;;;14.60;65.70;;;;;;2092877;28;20041;-74
2020/12/19 02:34:00;;;;;;;6.50;4.60;;;14.50;66.30;;;;;;2092491;28;20045;-75
2020/12/19 02:35:03;;;;;;;13.05;7.20;;;14.80;67.00;;;;;;2092862;28;20417;-76
2020/12/19 02:36:05;;;;;;;6.05;4.00;;;14.50;65.60;;;;;;2091760;28;20091;-76
2020/12/19 02:37:06;;;;;;;8.43;6.30;;;14.50;67.80;;;;;;2092198;28;20048;-75
2020/12/19 02:38:08;;;;;;;5.57;4.57;;;14.40;67.00;;;;;;2092547;28;20067;-75
2020/12/19 02:39:11;;;;;;;6.93;4.95;;;14.40;68.40;;;;;;2092074;28;20119;-75
2020/12/19 02:40:13;;;;;;;8.77;6.45;;;14.50;67.30;;;;;;2091551;28;20052;-76
2020/12/19 02:41:15;;;;;;;8.90;5.68;;;14.50;67.70;;;;;;2100621;28;20693;-75
2020/12/19 02:42:17;;;;;;;8.88;6.10;;;14.50;67.00;;;;;;2099909;28;20049;-75
2020/12/19 02:43:19;;;;;;;8.32;5.57;;;14.00;67.90;;;;;;2092774;28;20044;-75
2020/12/19 02:44:21;;;;;;;6.47;3.80;;;14.20;68.90;;;;;;2092438;28;20500;-76
2020/12/19 02:45:22;;;;;;;;;;;14.50;68.90;;;;;;2092765;28;20064;-76
2020/12/19 02:46:24;;;;;;;7.38;5.63;;;14.60;67.40;;;;;;2092035;28;19944;-75
2020/12/19 02:47:26;;;;;;;8.18;4.97;;;14.60;66.60;;;;;;2092380;28;20049;-76
2020/12/19 02:48:28;;;;;;;12.85;6.47;;;14.60;66.80;;;;;;2091774;28;20060;-76
2020/12/19 02:49:30;;;;;;;9.00;5.30;;;14.70;65.30;;;;;;2091833;28;20040;-76
2020/12/19 02:50:31;;;;;;;8.05;5.28;;;14.50;66.80;;;;;;2091905;28;20099;-75
2020/12/19 02:51:33;;;;;;;7.22;4.95;;;14.50;67.40;;;;;;2092150;28;20041;-75
2020/12/19 02:52:36;;;;;;;9.13;6.03;;;14.70;67.70;;;;;;2092269;28;20409;-76
2020/12/19 02:53:37;;;;;;;8.07;5.97;;;14.80;66.40;;;;;;2092284;28;20235;-75
2020/12/19 02:54:40;;;;;;;7.78;5.00;;;14.80;66.70;;;;;;2092061;28;20056;-76
2020/12/19 02:55:41;;;;;;;5.97;4.63;;;14.90;66.60;;;;;;2091628;28;20040;-76
2020/12/19 02:56:43;;;;;;;8.27;6.47;;;15.10;65.90;;;;;;2091255;28;20049;-76
2020/12/19 02:57:45;;;;;;;5.97;4.55;;;14.70;64.80;;;;;;2092525;28;20045;-75
2020/12/19 02:58:49;;;;;;;8.88;6.10;;;14.60;67.30;;;;;;2092388;28;20452;-75
2020/12/19 02:59:53;;;;;;;7.45;4.43;;;14.80;66.20;;;;;;2092433;28;20049;-76
2020/12/19 03:00:55;;;;;;;;;;;14.60;67.70;;;;;;2092586;28;20072;-76
2020/12/19 03:01:57;;;;;;;8.25;4.97;;;14.50;67.30;;;;;;2092571;28;19929;-75
2020/12/19 03:02:58;;;;;;;9.98;5.30;;;14.50;67.80;;;;;;2092580;28;20087;-75
2020/12/19 03:04:02;;;;;;;10.30;7.00;;;14.70;67.70;;;;;;2092178;28;20053;-74
2020/12/19 03:05:06;;;;;;;8.43;6.45;;;15.00;66.00;;;;;;2092264;28;20041;-75
2020/12/19 03:06:08;;;;;;;9.52;6.15;;;14.60;66.50;;;;;;2092657;28;20060;-75
2020/12/19 03:07:11;;;;;;;9.45;6.65;;;14.40;67.40;;;;;;2092549;28;20045;-75
2020/12/19 03:08:12;;;;;;;11.00;7.43;;;14.30;67.40;;;;;;2091930;28;20256;-76
2020/12/19 03:09:14;;;;;;;6.03;4.70;;;14.30;66.70;;;;;;2091776;28;20401;-75
2020/12/19 03:10:17;;;;;;;10.85;7.28;;;14.40;68.60;;;;;;2092386;28;20045;-75
2020/12/19 03:11:19;;;;;;;10.23;7.70;;;14.30;67.60;;;;;;2092390;28;20517;-75
2020/12/19 03:12:20;;;;;;;8.25;5.53;;;14.00;67.90;;;;;;2091452;28;20232;-76
2020/12/19 03:13:22;;;;;;;8.40;5.95;;;14.20;69.30;;;;;;2091959;28;20414;-76
2020/12/19 03:14:24;;;;;;;7.82;5.63;;;14.30;68.10;;;;;;2092333;28;20048;-77
2020/12/19 03:15:25;;;;;;;5.90;4.13;;;14.40;67.60;;;;;;2092005;28;20052;-76
2020/12/19 03:16:27;;;;;;;8.20;6.50;;;14.40;68.30;;;;;;2092248;28;20383;-76
2020/12/19 03:17:31;;;;;;;8.52;6.95;;;14.40;67.40;;;;;;2091358;28;20084;-76
2020/12/19 03:18:33;;;;;;;5.53;3.50;;;14.40;67.40;;;;;;2091704;28;20406;-76
2020/12/19 03:19:34;;;;;;;12.43;8.43;;;14.50;68.60;;;;;;2092049;28;20045;-75
2020/12/19 03:20:36;;;;;;;10.38;7.60;;;14.10;67.10;;;;;;2091184;28;20045;-76
2020/12/19 03:21:39;;;;;;;4.28;3.05;;;13.90;68.10;;;;;;2090530;28;20045;-76
2020/12/19 03:22:41;;;;;;;7.80;5.13;;;14.60;69.60;;;;;;2091606;28;20048;-76
2020/12/19 03:23:42;;;;;;;7.18;5.13;;;14.70;67.90;;;;;;2091004;28;20052;-76
2020/12/19 03:24:45;;;;;;;11.07;7.07;;;14.50;66.70;;;;;;2091792;28;20064;-76
2020/12/19 03:25:49;;;;;;;12.00;8.27;;;14.40;67.30;;;;;;2091500;28;20167;-76
2020/12/19 03:26:51;;;;;;;8.40;6.43;;;14.20;66.30;;;;;;2091640;28;20044;-76
2020/12/19 03:27:53;;;;;;;8.02;5.55;;;14.00;68.00;;;;;;2092573;28;20045;-76
2020/12/19 03:28:55;;;;;;;7.53;4.75;;;14.30;68.50;;;;;;2092126;28;20052;-76
2020/12/19 03:29:59;;;;;;;12.20;6.65;;;14.30;68.60;;;;;;2091245;28;20155;-76
2020/12/19 03:31:01;;;;;;;10.25;5.40;;;14.30;67.30;;;;;;2090069;28;20045;-76
2020/12/19 03:32:02;;;;;;;10.00;6.38;;;14.40;68.40;;;;;;2091638;28;20044;-76
2020/12/19 03:33:04;;;;;;;6.93;5.47;;;14.40;68.20;;;;;;2091899;28;20463;-76
2020/12/19 03:34:05;;;;;;;7.50;6.00;;;14.70;67.60;;;;;;2091442;28;20048;-77
2020/12/19 03:35:16;;;;;;;12.02;7.82;;;14.80;67.20;;;;;;2091375;28;20546;-76
2020/12/19 03:36:18;;;;;;;6.28;4.95;;;14.70;67.30;;;;;;2092401;28;20596;-76
2020/12/19 03:37:21;;;;;;;7.10;4.47;;;14.80;66.80;;;;;;2092100;28;20409;-76
2020/12/19 03:38:22;;;;;;;15.00;10.02;;;15.10;67.00;;;;;;2092158;28;20045;-76
2020/12/19 03:39:24;;;;;;;10.70;7.28;;;14.90;65.70;;;;;;2091412;28;20409;-76
2020/12/19 03:40:28;;;;;;;9.35;7.00;;;14.80;67.30;;;;;;2092577;28;20052;-76
2020/12/19 03:41:31;;;;;;;14.20;8.98;;;14.90;67.10;;;;;;2092710;28;20049;-76
2020/12/19 03:42:32;;;;;;;17.45;12.63;;;15.30;66.30;;;;;;2092633;28;20398;-77
2020/12/19 03:43:34;;;;;;;18.50;10.38;;;15.20;65.20;;;;;;2092808;28;20045;-76
2020/12/19 03:44:36;;;;;;;24.85;17.52;;;15.10;66.10;;;;;;2092778;28;20128;-76
2020/12/19 03:45:38;;;;;;;36.90;17.75;;;14.80;65.30;;;;;;2092904;28;20056;-76
2020/12/19 03:46:39;;;;;;;15.55;9.85;;;14.80;66.00;;;;;;2092070;28;20609;-76
2020/12/19 03:47:41;;;;;;;26.00;16.35;;;14.80;67.30;;;;;;2092957;28;20538;-76
2020/12/19 03:48:43;;;;;;;;;;;15.10;66.10;;;;;;2092775;28;20052;-76
2020/12/19 03:49:44;;;;;;;20.38;10.73;;;15.20;65.00;;;;;;2092928;28;19920;-75
2020/12/19 03:50:47;;;;;;;14.05;9.10;;;15.20;66.30;;;;;;2092913;28;20211;-76
2020/12/19 03:51:49;;;;;;;28.98;18.52;;;15.60;65.50;;;;;;2092782;28;20045;-76
2020/12/19 03:52:51;;;;;;;24.05;15.93;;;15.10;65.30;;;;;;2093012;28;20045;-76
2020/12/19 03:53:53;;;;;;;29.20;17.30;;;15.00;65.40;;;;;;2093074;28;20049;-77
2020/12/19 03:54:55;;;;;;;28.23;17.58;;;14.90;66.50;;;;;;2093996;28;20079;-76
2020/12/19 03:55:56;;;;;;;22.90;14.75;;;15.00;65.70;;;;;;2093336;28;20037;-76
2020/12/19 03:57:00;;;;;;;24.77;16.00;;;14.90;65.80;;;;;;2101065;28;20044;-76
2020/12/19 03:58:02;;;;;;;18.23;10.45;;;14.80;66.00;;;;;;2100967;28;20068;-76
2020/12/19 03:59:03;;;;;;;15.93;10.30;;;14.70;66.70;;;;;;2093631;28;20048;-76
2020/12/19 04:00:06;;;;;;;19.63;11.80;;;15.10;67.10;;;;;;2093555;28;20045;-77
2020/12/19 04:01:08;;;;;;;19.17;12.48;;;15.30;65.50;;;;;;2093512;28;20049;-76
2020/12/19 04:02:10;;;;;;;26.77;16.05;;;15.20;65.80;;;;;;2093654;28;20048;-76
2020/12/19 04:03:19;;;;;;;15.43;9.93;;;15.20;64.80;;;;;;2092327;28;20045;-76
2020/12/19 04:04:21;;;;;;;25.45;15.45;;;15.30;66.40;;;;;;2092225;28;20075;-76
2020/12/19 04:05:34;;;;;;;15.05;10.40;;;15.10;64.40;;;;;;2092380;28;20045;-76
2020/12/19 04:06:35;;;;;;;18.38;9.82;;;14.60;66.40;;;;;;2092207;28;20041;-76
2020/12/19 04:07:37;;;;;;;19.88;11.50;;;14.90;68.00;;;;;;2092272;28;20049;-76
2020/12/19 04:08:38;;;;;;;;;;;15.20;66.50;;;;;;2093317;28;20041;-77
2020/12/19 04:09:40;;;;;;;15.57;10.52;;;15.20;65.90;;;;;;2093562;28;19927;-76
2020/12/19 04:10:42;;;;;;;15.13;9.65;;;15.40;65.70;;;;;;2100007;28;20056;-76
2020/12/19 04:11:44;;;;;;;18.17;12.40;;;15.70;65.20;;;;;;2099412;28;20067;-77
2020/12/19 04:12:54;;;;;;;18.40;12.23;;;15.30;64.00;;;;;;2092662;28;20300;-76
2020/12/19 04:13:56;;;;;;;21.60;13.63;;;15.20;64.60;;;;;;2099835;28;20071;-76
2020/12/19 04:14:57;;;;;;;15.00;9.88;;;14.90;65.20;;;;;;2100539;28;20051;-76
2020/12/19 04:15:59;;;;;;;18.58;10.43;;;15.00;66.60;;;;;;2092587;28;20040;-76
2020/12/19 04:17:02;;;;;;;18.67;11.30;;;14.80;66.10;;;;;;2092837;28;20742;-77
2020/12/19 04:18:05;;;;;;;14.23;9.73;;;14.80;65.80;;;;;;2092739;28;20045;-76
2020/12/19 04:19:08;;;;;;;15.00;10.15;;;14.60;66.90;;;;;;2091985;28;20060;-76
2020/12/19 04:20:10;;;;;;;15.93;10.32;;;14.50;67.10;;;;;;2091292;28;20045;-77
2020/12/19 04:21:12;;;;;;;16.45;10.50;;;14.60;66.30;;;;;;2091186;28;20056;-77
2020/12/19 04:22:15;;;;;;;14.10;9.45;;;14.40;66.50;;;;;;2091001;28;20045;-77
2020/12/19 04:23:17;;;;;;;12.90;8.63;;;14.50;68.00;;;;;;2090714;28;20048;-76
2020/12/19 04:24:18;;;;;;;13.88;9.48;;;14.70;67.50;;;;;;2082221;28;20210;-75
2020/12/19 04:25:20;;;;;;;12.45;8.13;;;14.50;67.30;;;;;;2090185;28;20045;-76
2020/12/19 04:26:22;;;;;;;14.25;8.35;;;14.80;67.40;;;;;;2090092;28;20045;-76
2020/12/19 04:27:24;;;;;;;12.32;8.90;;;14.80;67.60;;;;;;2090383;28;20049;-76
2020/12/19 04:28:28;;;;;;;14.20;8.07;;;14.80;66.40;;;;;;2091146;28;20045;-76
2020/12/19 04:29:31;;;;;;;10.75;8.18;;;15.10;67.00;;;;;;2090980;28;20041;-77
2020/12/19 04:30:33;;;;;;;13.10;8.43;;;15.30;65.30;;;;;;2090914;28;20064;-77
2020/12/19 04:31:35;;;;;;;12.20;8.30;;;14.90;65.20;;;;;;2091005;28;20045;-76
2020/12/19 04:32:37;;;;;;;9.88;7.30;;;15.10;66.70;;;;;;2090818;28;20052;-76
2020/12/19 04:33:38;;;;;;;;;;;15.40;66.00;;;;;;2091524;28;20405;-77
2020/12/19 04:34:40;;;;;;;13.88;8.65;;;15.40;65.10;;;;;;2091079;28;19921;-76
2020/12/19 04:35:53;;;;;;;10.25;7.13;;;15.40;65.50;;;;;;2090943;28;20485;-76
2020/12/19 04:36:56;;;;;;;10.63;7.28;;;15.90;64.70;;;;;;2091055;28;20049;-76
2020/12/19 04:37:58;;;;;;;12.57;8.15;;;15.80;63.70;;;;;;2090984;28;20049;-77
2020/12/19 04:38:59;;;;;;;11.68;8.15;;;15.40;62.20;;;;;;2090955;28;20052;-76
2020/12/19 04:40:01;;;;;;;10.60;7.63;;;15.30;63.60;;;;;;2091146;28;20477;-76
2020/12/19 04:41:09;;;;;;;12.10;6.70;;;15.10;64.50;;;;;;2091044;28;20048;-77
2020/12/19 04:42:12;;;;;;;10.30;7.13;;;15.20;65.70;;;;;;2091154;28;20045;-77
2020/12/19 04:43:15;;;;;;;10.20;7.07;;;15.00;65.60;;;;;;2092907;28;20049;-77
2020/12/19 04:44:20;;;;;;;11.68;7.13;;;15.40;65.90;;;;;;2093549;28;20049;-76
2020/12/19 04:45:21;;;;;;;9.93;6.15;;;15.30;64.70;;;;;;2093417;28;20064;-76
2020/12/19 04:46:27;;;;;;;14.65;6.82;;;15.40;65.20;;;;;;2101447;28;20040;-77
2020/12/19 04:47:29;;;;;;;8.88;6.43;;;15.30;64.00;;;;;;2100924;28;20048;-76
2020/12/19 04:48:31;;;;;;;10.88;7.40;;;14.90;65.00;;;;;;2094259;28;20049;-76
2020/12/19 04:49:33;;;;;;;;;;;14.60;65.90;;;;;;2095633;28;20429;-76
2020/12/19 04:50:38;;;;;;;8.60;6.40;;;15.00;66.70;;;;;;2094094;28;19971;-75
2020/12/19 04:51:40;;;;;;;12.70;7.57;;;14.60;66.50;;;;;;2093596;28;20056;-75
2020/12/19 04:52:42;;;;;;;10.95;6.95;;;14.40;67.30;;;;;;2092653;28;20045;-76
2020/12/19 04:53:45;;;;;;;11.02;6.07;;;14.70;68.00;;;;;;2092497;28;20060;-76
2020/12/19 04:54:46;;;;;;;9.40;6.53;;;14.70;67.40;;;;;;2092719;28;20053;-75
2020/12/19 04:55:49;;;;;;;9.95;6.30;;;15.00;67.50;;;;;;2092775;28;20079;-75
2020/12/19 04:56:55;;;;;;;9.73;6.65;;;15.00;66.20;;;;;;2092977;28;20174;-75
2020/12/19 04:57:58;;;;;;;9.98;6.80;;;15.10;66.40;;;;;;2092640;28;20045;-75
2020/12/19 04:59:01;;;;;;;7.95;5.93;;;15.00;65.40;;;;;;2091769;28;20073;-75
2020/12/19 05:00:05;;;;;;;9.80;5.97;;;15.20;66.00;;;;;;2092106;28;20045;-75
2020/12/19 05:01:06;;;;;;;10.18;7.32;;;15.30;65.70;;;;;;2091151;28;20045;-74
2020/12/19 05:02:08;;;;;;;7.50;5.40;;;14.70;65.10;;;;;;2094533;28;20385;-74
2020/12/19 05:03:10;;;;;;;9.27;5.82;;;14.70;67.80;;;;;;2098802;28;20048;-75
2020/12/19 05:04:13;;;;;;;8.60;6.43;;;14.50;67.50;;;;;;2091071;28;20146;-74
2020/12/19 05:05:16;;;;;;;10.98;6.28;;;14.50;67.30;;;;;;2091452;28;20056;-75
2020/12/19 05:06:20;;;;;;;8.68;5.60;;;14.60;67.10;;;;;;2091809;28;20045;-75
2020/12/19 05:07:23;;;;;;;14.35;7.75;;;14.80;67.50;;;;;;2092521;28;20190;-75
2020/12/19 05:08:25;;;;;;;9.00;5.88;;;14.40;66.10;;;;;;2092491;28;20056;-75
2020/12/19 05:09:27;;;;;;;8.43;6.15;;;14.40;68.50;;;;;;2091727;28;20064;-75
2020/12/19 05:10:28;;;;;;;9.02;6.65;;;14.30;67.30;;;;;;2091322;28;20488;-75
2020/12/19 05:11:30;;;;;;;8.32;5.32;;;13.80;68.30;;;;;;2090453;28;20470;-76
2020/12/19 05:12:32;;;;;;;8.55;5.82;;;14.30;69.70;;;;;;2090093;28;20549;-74
2020/12/19 05:13:33;;;;;;;7.30;5.60;;;14.40;67.60;;;;;;2090812;28;20041;-75
2020/12/19 05:14:36;;;;;;;;;;;14.30;68.20;;;;;;2090866;28;20056;-75
2020/12/19 05:15:39;;;;;;;12.07;6.05;;;14.10;68.40;;;;;;2090321;28;19956;-75
2020/12/19 05:16:41;;;;;;;9.55;5.95;;;14.10;68.90;;;;;;2091233;28;20049;-75
2020/12/19 05:17:50;;;;;;;9.70;6.30;;;14.10;68.30;;;;;;2091104;28;20583;-75
2020/12/19 05:18:52;;;;;;;7.82;5.43;;;14.10;68.80;;;;;;2090326;28;20111;-75
2020/12/19 05:19:54;;;;;;;;;;;14.60;67.90;;;;;;2090836;28;20052;-75
2020/12/19 05:20:56;;;;;;;8.15;5.35;;;14.30;68.50;;;;;;2090314;28;19920;-75
2020/12/19 05:21:58;;;;;;;6.85;4.88;;;14.30;69.10;;;;;;2089701;28;20410;-75
2020/12/19 05:23:00;;;;;;;9.48;5.53;;;14.50;69.30;;;;;;2081856;28;20282;-75
2020/12/19 05:24:02;;;;;;;11.18;6.30;;;14.70;67.70;;;;;;2089943;28;20056;-75
2020/12/19 05:25:03;;;;;;;;;;;14.60;66.70;;;;;;2090871;28;20045;-75
2020/12/19 05:26:06;;;;;;;5.90;4.38;;;14.40;66.60;;;;;;2090406;28;19928;-75